Terminal Aerodrome Forecast
Issued by NWS Greer, SC

Home | Current Version | Previous Version | Text Only | Print | Product List | Glossary On
Versions: 1 2 3 4 5 6 7 8 9 10 11 12 13 14 15 16 17 18 19 20 21 22
000
FTUS42 KGSP 222100 AAA
TAFGSP
TAF AMD
KGSP 222101Z 2221/2318 08007KT P6SM VCTS SCT020CB BKN070
      TEMPO 2221/2224 6SM -SHRA BKN020
     FM230300 00000KT P6SM BKN029
     FM230500 00000KT P6SM BKN020
     FM230900 00000KT 5SM BR BKN010
     FM231400 00000KT 5SM BR BKN030
     FM231600 24004KT P6SM BKN035=

USA.gov is the U.S. government's official web portal to all federal, state and local government web resources and services.